createdAt,value
2019-01-15T00:00:10.350Z,1.73
2019-01-15T00:02:38.701Z,1.50
2019-01-15T00:05:06.908Z,1.80
2019-01-15T00:07:35.038Z,1.53
2019-01-15T00:10:05.197Z,1.37
2019-01-15T00:12:33.331Z,1.47
2019-01-15T00:15:01.467Z,1.63
2019-01-15T00:17:29.638Z,1.77
2019-01-15T00:19:57.779Z,1.57
2019-01-15T00:22:25.913Z,1.87
2019-01-15T00:24:54.095Z,1.60
2019-01-15T00:27:22.229Z,1.90
2019-01-15T00:29:50.355Z,1.80
2019-01-15T00:32:18.533Z,1.80
2019-01-15T00:34:46.682Z,1.70
2019-01-15T00:37:14.822Z,2.10
2019-01-15T00:39:43.109Z,1.70
2019-01-15T00:42:15.319Z,1.73
2019-01-15T00:44:41.082Z,1.40
2019-01-15T00:47:09.251Z,1.50
2019-01-15T00:49:37.380Z,1.50
2019-01-15T00:52:05.588Z,1.80
2019-01-15T00:54:33.734Z,1.90
2019-01-15T00:57:01.904Z,1.70
2019-01-15T00:59:30.073Z,1.83
2019-01-15T01:01:58.229Z,1.70
2019-01-15T01:04:26.365Z,1.53
2019-01-15T01:06:54.490Z,1.47
2019-01-15T01:09:23.227Z,1.80
2019-01-15T01:11:51.430Z,1.63
2019-01-15T01:14:19.521Z,1.47
2019-01-15T01:16:47.675Z,1.50
2019-01-15T01:19:15.813Z,1.90
2019-01-15T01:21:43.943Z,1.50
2019-01-15T01:24:12.122Z,1.70
2019-01-15T01:26:40.265Z,1.80
2019-01-15T01:29:08.370Z,1.80
2019-01-15T01:31:36.730Z,2.00
2019-01-15T01:34:04.907Z,1.50
2019-01-15T01:36:33.025Z,1.80
2019-01-15T01:39:01.427Z,1.70
2019-01-15T01:41:29.532Z,1.80
2019-01-15T01:43:57.634Z,1.90
2019-01-15T01:46:25.757Z,1.93
2019-01-15T01:48:53.892Z,1.60
2019-01-15T01:51:22.005Z,1.80
2019-01-15T01:53:50.139Z,2.20
2019-01-15T01:56:18.247Z,2.00
2019-01-15T01:58:46.375Z,2.00
2019-01-15T02:01:14.699Z,1.80
2019-01-15T02:03:42.844Z,1.73
2019-01-15T02:06:11.037Z,1.87
2019-01-15T02:08:39.294Z,1.87
2019-01-15T02:11:07.415Z,1.70
2019-01-15T02:13:35.564Z,1.50
2019-01-15T02:16:03.897Z,1.70
2019-01-15T02:18:32.024Z,1.80
2019-01-15T02:21:00.121Z,1.80
2019-01-15T02:23:28.474Z,1.90
2019-01-15T02:25:56.574Z,2.17
2019-01-15T02:28:24.682Z,2.10
2019-01-15T02:30:52.990Z,1.87
2019-01-15T02:33:21.145Z,1.90
2019-01-15T02:35:49.348Z,2.20
2019-01-15T02:38:17.681Z,1.80
2019-01-15T02:40:45.785Z,2.10
2019-01-15T02:43:13.905Z,2.00
2019-01-15T02:45:42.035Z,1.77
2019-01-15T02:48:10.152Z,1.80
2019-01-15T02:50:38.259Z,1.83
2019-01-15T02:53:06.636Z,1.90
2019-01-15T02:55:34.736Z,2.07
2019-01-15T02:58:02.889Z,1.90
2019-01-15T03:00:31.113Z,1.80
2019-01-15T03:02:59.253Z,1.77
2019-01-15T03:05:27.398Z,1.77
2019-01-15T03:07:55.592Z,1.70
2019-01-15T03:10:23.782Z,1.97
2019-01-15T03:12:55.790Z,1.50
2019-01-15T03:15:22.395Z,1.77
2019-01-15T03:17:50.582Z,1.73
2019-01-15T03:20:18.710Z,1.50
2019-01-15T03:22:47.082Z,1.50
2019-01-15T03:25:15.363Z,1.50
2019-01-15T03:27:43.478Z,1.50
2019-01-15T03:30:16.322Z,1.37
2019-01-15T03:32:44.439Z,1.60
2019-01-15T03:35:12.730Z,1.50
2019-01-15T03:37:41.026Z,1.77
2019-01-15T03:40:10.681Z,2.00
2019-01-15T03:42:38.803Z,1.63
2019-01-15T03:45:07.698Z,1.70
2019-01-15T03:47:35.826Z,1.50
2019-01-15T03:50:05.417Z,1.70
2019-01-15T03:52:33.866Z,1.67
2019-01-15T03:55:02.042Z,1.90
2019-01-15T03:57:30.158Z,1.60
2019-01-15T03:59:58.569Z,1.60
2019-01-15T04:02:26.742Z,1.97
2019-01-15T04:04:55.029Z,1.30
2019-01-15T04:07:23.463Z,1.73
2019-01-15T04:09:51.637Z,1.60
2019-01-15T04:12:19.747Z,1.70
2019-01-15T04:14:47.859Z,1.70
2019-01-15T04:17:15.979Z,1.30
2019-01-15T04:19:44.076Z,1.90
2019-01-15T04:22:12.214Z,1.30
2019-01-15T04:24:40.330Z,1.37
2019-01-15T04:27:08.422Z,1.70
2019-01-15T04:29:36.571Z,1.80
2019-01-15T04:32:04.748Z,1.43
2019-01-15T04:34:32.847Z,1.23
2019-01-15T04:37:01.891Z,1.97
2019-01-15T04:39:30.097Z,1.60
2019-01-15T04:41:58.173Z,1.60
2019-01-15T04:44:26.510Z,1.70
2019-01-15T04:46:54.605Z,1.50
2019-01-15T04:49:22.737Z,1.53
2019-01-15T04:51:50.872Z,1.30
2019-01-15T04:54:18.978Z,1.40
2019-01-15T04:56:47.243Z,1.60
2019-01-15T04:59:15.454Z,1.50
2019-01-15T05:01:43.546Z,1.27
2019-01-15T05:04:11.651Z,1.60
2019-01-15T05:06:39.794Z,1.53
2019-01-15T05:09:07.898Z,1.60
2019-01-15T05:11:36.002Z,1.40
2019-01-15T05:14:04.159Z,1.80
2019-01-15T05:16:32.266Z,1.47
2019-01-15T05:19:00.355Z,1.80
2019-01-15T05:21:28.516Z,1.60
2019-01-15T05:23:56.628Z,1.40
2019-01-15T05:26:24.722Z,1.30
2019-01-15T05:28:52.993Z,1.43
2019-01-15T05:31:21.091Z,1.73
2019-01-15T05:33:49.208Z,1.80
2019-01-15T05:36:17.463Z,1.80
2019-01-15T05:38:45.609Z,1.97
2019-01-15T05:41:13.711Z,1.50
2019-01-15T05:43:42.150Z,1.80
2019-01-15T05:46:10.241Z,1.60
2019-01-15T05:48:38.349Z,1.73
2019-01-15T05:51:10.672Z,1.63
2019-01-15T05:53:38.778Z,2.13
2019-01-15T05:56:06.890Z,1.90
2019-01-15T05:58:35.104Z,1.90
2019-01-15T06:01:03.422Z,2.10
2019-01-15T06:03:31.622Z,1.90
2019-01-15T06:05:59.759Z,2.13
2019-01-15T06:08:27.861Z,2.23
2019-01-15T06:10:55.965Z,2.30
2019-01-15T06:13:24.085Z,2.53
2019-01-15T06:15:52.190Z,2.20
2019-01-15T06:18:20.281Z,2.83
2019-01-15T06:20:48.792Z,2.30
2019-01-15T06:23:16.881Z,2.80
2019-01-15T06:25:44.995Z,2.33
2019-01-15T06:28:13.284Z,2.60
2019-01-15T06:30:41.374Z,2.90
2019-01-15T06:33:09.479Z,2.60
2019-01-15T06:35:37.754Z,2.90
2019-01-15T06:38:05.973Z,2.70
2019-01-15T06:40:34.062Z,2.70
2019-01-15T06:43:03.761Z,3.10
2019-01-15T06:45:32.357Z,2.70
2019-01-15T06:48:00.460Z,2.90
2019-01-15T06:50:28.662Z,2.77
2019-01-15T06:52:56.753Z,2.70
2019-01-15T06:55:24.840Z,2.50
2019-01-15T06:57:53.019Z,3.07
2019-01-15T07:00:25.418Z,2.73
2019-01-15T07:02:53.514Z,2.20
2019-01-15T07:05:21.826Z,2.90
2019-01-15T07:07:49.996Z,2.80
2019-01-15T07:10:25.333Z,2.50
2019-01-15T07:12:53.421Z,2.50
2019-01-15T07:15:21.521Z,2.90
2019-01-15T07:17:49.923Z,2.53
2019-01-15T07:20:18.174Z,2.93
2019-01-15T07:22:46.266Z,2.70
2019-01-15T07:25:15.705Z,2.50
2019-01-15T07:27:43.825Z,2.50
2019-01-15T07:30:29.048Z,2.23
2019-01-15T07:32:57.150Z,2.60
2019-01-15T07:35:25.276Z,2.40
2019-01-15T07:37:53.722Z,2.40
2019-01-15T07:40:21.842Z,2.30
2019-01-15T07:42:49.964Z,2.50
2019-01-15T07:45:18.223Z,2.27
2019-01-15T07:47:46.347Z,2.13
2019-01-15T07:50:15.732Z,2.20
2019-01-15T07:52:43.844Z,2.60
2019-01-15T07:55:13.128Z,2.30
2019-01-15T07:57:41.234Z,2.10
2019-01-15T08:00:13.991Z,2.50
2019-01-15T08:02:42.187Z,2.30
2019-01-15T08:05:11.270Z,2.13
2019-01-15T08:07:39.761Z,2.00
2019-01-15T08:10:09.405Z,1.90
2019-01-15T08:12:37.513Z,1.93
2019-01-15T08:15:07.641Z,2.30
2019-01-15T08:17:35.771Z,1.93
2019-01-15T08:20:05.357Z,2.07
2019-01-15T08:22:33.609Z,2.07
2019-01-15T08:25:01.726Z,1.80
2019-01-15T08:27:29.866Z,2.10
2019-01-15T08:29:58.137Z,1.97
2019-01-15T08:32:26.282Z,2.20
2019-01-15T08:34:54.419Z,1.90
2019-01-15T08:37:23.026Z,1.90
2019-01-15T08:39:51.221Z,1.80
2019-01-15T08:42:19.374Z,1.60
2019-01-15T08:44:47.704Z,1.90
2019-01-15T08:47:16.905Z,1.97
2019-01-15T08:49:45.027Z,2.47
2019-01-15T08:52:13.171Z,1.80
2019-01-15T08:54:41.297Z,2.00
2019-01-15T08:57:09.457Z,1.80
2019-01-15T08:59:37.697Z,1.70
2019-01-15T09:02:05.851Z,2.03
2019-01-15T09:04:33.974Z,2.00
2019-01-15T09:07:02.321Z,2.03
2019-01-15T09:09:30.500Z,2.00
2019-01-15T09:11:58.634Z,2.00
2019-01-15T09:14:27.223Z,1.80
2019-01-15T09:16:55.454Z,1.67
2019-01-15T09:19:23.723Z,1.70
2019-01-15T09:21:51.942Z,2.23
2019-01-15T09:24:20.149Z,1.80
2019-01-15T09:26:48.286Z,1.97
2019-01-15T09:29:16.725Z,2.27
2019-01-15T09:31:44.861Z,2.07
2019-01-15T09:34:12.986Z,2.10
2019-01-15T09:36:41.157Z,2.00
2019-01-15T09:39:09.521Z,2.20
2019-01-15T09:41:38.334Z,2.00
2019-01-15T09:44:06.772Z,2.00
2019-01-15T09:46:34.904Z,2.27
2019-01-15T09:49:03.025Z,2.10
2019-01-15T09:51:31.180Z,2.20
2019-01-15T09:53:59.320Z,1.87
2019-01-15T09:56:27.447Z,2.23
2019-01-15T09:58:55.736Z,1.90
2019-01-15T10:01:23.944Z,2.23
2019-01-15T10:03:52.077Z,2.00
2019-01-15T10:06:20.445Z,1.87
2019-01-15T10:08:48.602Z,2.10
2019-01-15T10:11:16.735Z,2.00
2019-01-15T10:13:44.881Z,1.90
2019-01-15T10:16:13.020Z,2.20
2019-01-15T10:18:41.115Z,2.30
2019-01-15T10:21:09.587Z,2.10
2019-01-15T10:23:37.738Z,2.30
2019-01-15T10:26:05.920Z,2.27
2019-01-15T10:28:34.255Z,2.40
2019-01-15T10:31:20.485Z,2.00
2019-01-15T10:33:50.325Z,2.20
2019-01-15T10:36:17.925Z,2.30
2019-01-15T10:38:46.056Z,2.20
2019-01-15T10:41:14.616Z,2.63
2019-01-15T10:43:42.749Z,2.50
2019-01-15T10:46:10.886Z,2.40
2019-01-15T10:48:39.095Z,2.40
2019-01-15T10:51:07.235Z,2.10
2019-01-15T10:53:35.325Z,2.27
2019-01-15T10:56:03.543Z,2.30
2019-01-15T10:58:31.642Z,2.73
2019-01-15T11:00:59.764Z,2.70
2019-01-15T11:03:28.244Z,2.60
2019-01-15T11:05:56.329Z,2.37
2019-01-15T11:08:24.443Z,2.70
2019-01-15T11:10:52.922Z,2.93
2019-01-15T11:13:21.033Z,2.63
2019-01-15T11:15:49.143Z,2.67
2019-01-15T11:18:17.262Z,2.83
2019-01-15T11:20:45.369Z,2.57
2019-01-15T11:23:13.470Z,2.90
2019-01-15T11:25:41.629Z,2.50
2019-01-15T11:28:09.768Z,2.60
2019-01-15T11:30:37.883Z,2.50
2019-01-15T11:33:06.213Z,2.50
2019-01-15T11:35:34.323Z,2.73
2019-01-15T11:38:02.498Z,2.20
2019-01-15T11:40:31.122Z,2.50
2019-01-15T11:42:59.246Z,2.40
2019-01-15T11:45:27.356Z,2.17
2019-01-15T11:47:55.551Z,2.40
2019-01-15T11:50:23.670Z,2.20
2019-01-15T11:52:51.767Z,2.23
2019-01-15T11:55:21.266Z,2.00
2019-01-15T11:57:49.619Z,2.40
2019-01-15T12:00:23.873Z,2.30
2019-01-15T12:02:56.416Z,2.00
2019-01-15T12:05:26.189Z,2.47
2019-01-15T12:07:58.769Z,2.03
2019-01-15T12:10:44.516Z,2.40
2019-01-15T12:13:14.293Z,2.20
2019-01-15T12:15:44.041Z,2.27
2019-01-15T12:18:16.383Z,2.20
2019-01-15T12:20:52.077Z,2.40
2019-01-15T12:23:33.539Z,2.40
2019-01-15T12:26:03.461Z,2.10
2019-01-15T12:28:49.175Z,2.23
2019-01-15T12:31:35.229Z,2.00
2019-01-15T12:34:10.681Z,2.10
2019-01-15T12:36:52.455Z,2.00
2019-01-15T12:39:30.788Z,2.13
2019-01-15T12:42:03.411Z,2.37
2019-01-15T12:44:38.958Z,1.90
2019-01-15T12:47:08.775Z,2.20
2019-01-15T12:49:54.407Z,1.97
2019-01-15T12:52:26.705Z,2.10
2019-01-15T12:54:56.447Z,2.10
2019-01-15T12:57:40.884Z,2.23
2019-01-15T13:00:21.346Z,2.00
2019-01-15T13:03:08.790Z,2.10
2019-01-15T13:05:56.198Z,2.30
2019-01-15T13:08:26.133Z,2.03
2019-01-15T13:11:07.618Z,1.73
2019-01-15T13:13:37.418Z,1.83
2019-01-15T13:16:09.737Z,2.20
2019-01-15T13:18:39.509Z,1.90
2019-01-15T13:21:09.364Z,2.53
2019-01-15T13:23:47.693Z,2.03
2019-01-15T13:26:17.582Z,2.30
2019-01-15T13:29:02.191Z,1.70
2019-01-15T13:31:38.037Z,1.97
2019-01-15T13:34:10.683Z,1.80
2019-01-15T13:36:40.459Z,2.10
2019-01-15T13:39:10.512Z,2.07
2019-01-15T13:41:40.295Z,2.40
2019-01-15T13:44:21.875Z,2.17
2019-01-15T13:46:54.295Z,2.30
2019-01-15T13:49:29.502Z,2.20
2019-01-15T13:52:13.990Z,2.10
2019-01-15T13:54:43.794Z,2.27
2019-01-15T13:57:16.346Z,2.00
2019-01-15T13:59:48.908Z,2.23
2019-01-15T14:02:21.226Z,2.13
2019-01-15T14:05:00.211Z,2.23
2019-01-15T14:07:45.953Z,2.00
2019-01-15T14:10:15.859Z,1.90
2019-01-15T14:15:21.225Z,2.00
2019-01-15T14:17:59.622Z,2.30
2019-01-15T14:20:29.633Z,1.70
2019-01-15T14:23:15.239Z,1.93
2019-01-15T14:26:02.659Z,2.10
2019-01-15T14:28:35.375Z,2.20
2019-01-15T14:31:13.895Z,1.80
2019-01-15T14:33:49.378Z,1.97
2019-01-15T14:36:36.939Z,2.03
2019-01-15T14:39:25.967Z,1.90
2019-01-15T14:41:58.598Z,2.03
2019-01-15T14:44:31.179Z,2.10
2019-01-15T14:47:12.894Z,2.20
2019-01-15T14:49:42.678Z,2.30
2019-01-15T14:52:30.250Z,2.20
2019-01-15T14:57:54.674Z,2.30
2019-01-15T15:00:42.100Z,2.37
2019-01-15T15:03:48.879Z,2.00
2019-01-15T15:06:18.645Z,2.00
2019-01-15T15:08:51.006Z,2.00
2019-01-15T15:11:57.827Z,2.40
2019-01-15T15:14:45.471Z,2.07
2019-01-15T15:23:10.895Z,2.47
2019-01-15T15:25:46.450Z,2.37
2019-01-15T15:28:16.237Z,2.20
2019-01-15T15:36:29.104Z,2.70
2019-01-15T15:39:01.579Z,2.37
2019-01-15T15:41:51.642Z,2.40
2019-01-15T15:44:23.990Z,2.50
2019-01-15T15:47:11.407Z,2.70
2019-01-15T15:53:10.491Z,2.50
2019-01-15T16:01:48.782Z,2.73
2019-01-15T16:04:24.534Z,3.40
2019-01-15T16:07:11.967Z,2.80
2019-01-15T16:09:50.622Z,2.50
2019-01-15T16:12:57.401Z,2.50
2019-01-15T16:15:27.617Z,2.60
2019-01-15T16:18:15.299Z,2.60
2019-01-15T16:21:02.839Z,2.60
2019-01-15T16:23:50.507Z,3.10
2019-01-15T16:26:20.257Z,2.60
2019-01-15T16:28:50.077Z,2.70
2019-01-15T16:31:37.543Z,2.70
2019-01-15T16:34:10.578Z,2.90
2019-01-15T16:37:17.659Z,2.60
2019-01-15T16:39:50.187Z,2.70
2019-01-15T16:45:36.218Z,2.80
2019-01-15T16:48:24.035Z,2.63
2019-01-15T16:51:11.665Z,2.57
2019-01-15T16:53:59.076Z,2.80
2019-01-15T16:59:47.846Z,3.30
2019-01-15T17:02:23.245Z,3.03
2019-01-15T17:04:59.044Z,3.20
2019-01-15T17:07:28.818Z,3.10
2019-01-15T17:10:16.274Z,3.00
2019-01-15T17:12:48.428Z,2.73
2019-01-15T17:15:34.616Z,3.00
2019-01-15T17:18:13.146Z,2.90
2019-01-15T17:20:43.262Z,2.80
2019-01-15T17:23:24.734Z,2.60
2019-01-15T17:26:10.513Z,3.00
2019-01-15T17:28:51.985Z,2.77
2019-01-15T17:31:21.929Z,2.70
2019-01-15T17:33:57.565Z,2.73
2019-01-15T17:36:33.030Z,2.77
2019-01-15T17:39:17.627Z,2.63
2019-01-15T17:41:47.441Z,3.07
2019-01-15T17:44:25.755Z,3.20
2019-01-15T17:47:04.043Z,2.80
2019-01-15T17:49:51.480Z,2.90
2019-01-15T17:52:26.798Z,2.93
2019-01-15T17:55:02.026Z,3.00
2019-01-15T17:57:34.391Z,3.13
2019-01-15T18:00:04.151Z,2.93
2019-01-15T18:02:36.466Z,3.00
2019-01-15T18:05:07.081Z,2.93
2019-01-15T18:07:36.827Z,3.50
2019-01-15T18:10:10.963Z,2.70
2019-01-15T18:12:46.455Z,3.13
2019-01-15T18:15:16.221Z,3.20
2019-01-15T18:17:48.850Z,3.60
2019-01-15T18:20:43.867Z,3.17
2019-01-15T18:23:16.114Z,3.43
2019-01-15T18:25:48.445Z,2.83
2019-01-15T18:28:30.277Z,3.40
2019-01-15T18:31:11.793Z,3.40
2019-01-15T18:33:57.438Z,3.97
2019-01-15T18:36:27.393Z,3.73
2019-01-15T18:38:59.729Z,4.10
2019-01-15T18:41:29.509Z,3.30
2019-01-15T18:43:59.554Z,3.53
2019-01-15T18:46:29.306Z,3.83
2019-01-15T18:48:59.065Z,4.03
2019-01-15T18:51:43.477Z,4.10
2019-01-15T18:54:13.243Z,4.60
2019-01-15T18:56:43.000Z,4.07
2019-01-15T18:59:15.639Z,3.70
2019-01-15T19:02:00.106Z,4.13
2019-01-15T19:04:32.598Z,3.80
2019-01-15T19:07:16.922Z,3.83
2019-01-15T19:09:49.397Z,4.40
2019-01-15T19:12:24.955Z,4.53
2019-01-15T19:15:00.386Z,4.57
2019-01-15T19:17:32.617Z,4.20
2019-01-15T19:20:08.097Z,4.50
2019-01-15T19:22:37.886Z,3.80
2019-01-15T19:25:19.782Z,3.93
2019-01-15T19:27:49.522Z,4.33
2019-01-15T19:30:35.689Z,4.37
2019-01-15T19:33:08.130Z,3.90
2019-01-15T19:39:19.208Z,3.47
2019-01-15T19:42:07.206Z,3.70
2019-01-15T19:44:37.183Z,3.67
2019-01-15T19:47:10.697Z,3.50
2019-01-15T19:49:46.551Z,3.53
2019-01-15T19:52:21.931Z,3.10
2019-01-15T19:54:54.264Z,3.40
2019-01-15T19:57:24.014Z,3.40
2019-01-15T20:03:19.702Z,3.47
2019-01-15T20:05:52.161Z,4.07
2019-01-15T20:08:37.887Z,3.57
2019-01-15T20:14:12.713Z,3.60
2019-01-15T20:16:45.011Z,3.90
2019-01-15T20:19:32.451Z,3.37
2019-01-15T20:25:26.743Z,3.77
2019-01-15T20:28:14.186Z,3.70
2019-01-15T20:30:49.767Z,3.63
2019-01-15T20:33:37.161Z,3.63
2019-01-15T20:36:23.128Z,4.00
2019-01-15T20:39:10.529Z,3.60
2019-01-15T20:41:40.358Z,3.83
2019-01-15T20:44:15.743Z,3.77
2019-01-15T20:47:03.335Z,3.67
2019-01-15T20:49:50.976Z,3.43
2019-01-15T20:55:12.536Z,3.40
2019-01-15T20:57:59.955Z,3.50
2019-01-15T21:00:47.406Z,3.33
2019-01-15T21:03:34.818Z,3.63
2019-01-15T21:06:10.484Z,3.30
2019-01-15T21:08:57.868Z,3.33
2019-01-15T21:11:51.336Z,3.77
2019-01-15T21:14:38.863Z,3.60
2019-01-15T21:17:11.779Z,3.47
2019-01-15T21:22:49.063Z,3.40
2019-01-15T21:25:18.818Z,4.13
2019-01-15T21:28:06.224Z,3.20
2019-01-15T21:30:38.532Z,3.50
2019-01-15T21:33:08.282Z,3.23
2019-01-15T21:35:55.739Z,3.40
2019-01-15T21:38:25.946Z,3.20
2019-01-15T21:41:13.475Z,3.00
2019-01-15T21:44:00.867Z,3.10
2019-01-15T21:46:30.835Z,3.30
2019-01-15T21:49:18.218Z,3.30
2019-01-15T21:54:57.943Z,3.60
2019-01-15T21:57:30.477Z,3.20
2019-01-15T22:00:17.903Z,3.10
2019-01-15T22:03:05.531Z,2.80
2019-01-15T22:05:36.117Z,3.20
2019-01-15T22:08:23.505Z,3.13
2019-01-15T22:11:11.218Z,3.17
2019-01-15T22:16:53.890Z,2.90
2019-01-15T22:20:00.697Z,2.50
2019-01-15T22:22:48.583Z,2.83
2019-01-15T22:25:20.855Z,2.93
2019-01-15T22:28:09.344Z,3.00
2019-01-15T22:30:39.132Z,3.00
2019-01-15T22:33:26.575Z,2.90
2019-01-15T22:36:14.357Z,2.90
2019-01-15T22:44:58.466Z,2.70
2019-01-15T22:47:28.421Z,2.73
2019-01-15T22:50:00.675Z,2.80
2019-01-15T22:52:49.824Z,2.80
2019-01-15T22:55:37.426Z,3.20
2019-01-15T23:01:28.803Z,3.10
2019-01-15T23:04:35.590Z,3.10
2019-01-15T23:07:21.669Z,2.80
2019-01-15T23:09:51.452Z,2.60
2019-01-15T23:12:38.881Z,2.53
2019-01-15T23:15:09.318Z,2.87
2019-01-15T23:20:45.843Z,2.33
2019-01-15T23:23:33.257Z,2.73
2019-01-15T23:26:40.467Z,2.47
2019-01-15T23:29:10.682Z,2.70
2019-01-15T23:31:58.246Z,3.07
2019-01-15T23:34:47.346Z,2.47
2019-01-15T23:37:20.386Z,2.90
2019-01-15T23:40:07.806Z,2.67
2019-01-15T23:42:37.613Z,2.83
2019-01-15T23:45:10.395Z,2.87
2019-01-15T23:47:49.014Z,2.63
2019-01-15T23:50:30.465Z,2.70
2019-01-15T23:53:00.417Z,2.80
2019-01-15T23:55:41.833Z,2.80
2019-01-15T23:58:11.626Z,2.70
